createdAt,value
2018-06-19T00:00:24.942Z,19.20
2018-06-19T00:02:53.239Z,19.30
2018-06-19T00:07:49.973Z,19.30
2018-06-19T00:10:18.269Z,19.50
2018-06-19T00:12:46.519Z,19.50
2018-06-19T00:15:14.828Z,19.60
2018-06-19T00:17:43.115Z,19.70
2018-06-19T00:20:11.374Z,19.80
2018-06-19T00:22:39.635Z,19.70
2018-06-19T00:25:07.938Z,19.80
2018-06-19T00:27:36.221Z,19.90
2018-06-19T00:30:04.643Z,19.90
2018-06-19T00:32:32.966Z,19.90
2018-06-19T00:35:01.247Z,19.90
2018-06-19T00:37:29.527Z,19.80
2018-06-19T00:39:57.823Z,19.90
2018-06-19T00:42:26.201Z,19.80
2018-06-19T00:44:54.476Z,19.80
2018-06-19T00:47:22.759Z,19.80
2018-06-19T00:49:51.114Z,19.80
2018-06-19T00:52:19.383Z,19.80
2018-06-19T00:54:47.677Z,19.80
2018-06-19T00:57:15.915Z,19.70
2018-06-19T00:59:44.271Z,19.70
2018-06-19T01:02:12.575Z,19.70
2018-06-19T01:04:40.957Z,19.60
2018-06-19T01:07:09.251Z,19.70
2018-06-19T01:09:37.507Z,19.70
2018-06-19T01:12:05.836Z,19.80
2018-06-19T01:14:34.072Z,19.90
2018-06-19T01:17:02.311Z,20.00
2018-06-19T01:19:30.632Z,20.00
2018-06-19T01:21:58.923Z,20.00
2018-06-19T01:24:27.216Z,20.00
2018-06-19T01:26:55.444Z,20.10
2018-06-19T01:29:23.709Z,20.00
2018-06-19T01:31:52.028Z,20.00
2018-06-19T01:34:20.313Z,20.00
2018-06-19T01:36:48.590Z,20.00
2018-06-19T01:39:16.856Z,19.90
2018-06-19T01:41:45.131Z,19.90
2018-06-19T01:44:13.392Z,19.90
2018-06-19T01:46:41.683Z,19.90
2018-06-19T01:49:09.975Z,19.80
2018-06-19T01:51:38.264Z,19.80
2018-06-19T01:54:06.521Z,19.80
2018-06-19T01:56:34.795Z,19.70
2018-06-19T01:59:03.050Z,19.60
2018-06-19T02:01:31.380Z,19.60
2018-06-19T02:03:59.716Z,19.50
2018-06-19T02:06:28.010Z,19.40
2018-06-19T02:08:56.280Z,19.30
2018-06-19T02:11:24.561Z,19.20
2018-06-19T02:13:52.820Z,19.10
2018-06-19T02:16:21.121Z,19.00
2018-06-19T02:18:49.365Z,19.00
2018-06-19T02:21:17.668Z,18.90
2018-06-19T02:23:45.941Z,18.80
2018-06-19T02:26:14.253Z,18.70
2018-06-19T02:28:42.484Z,18.70
2018-06-19T02:31:11.817Z,18.60
2018-06-19T02:33:40.101Z,18.60
2018-06-19T02:36:08.355Z,18.60
2018-06-19T02:38:36.664Z,18.50
2018-06-19T02:41:04.895Z,18.60
2018-06-19T02:43:33.185Z,18.50
2018-06-19T02:46:01.475Z,18.40
2018-06-19T02:48:29.799Z,18.40
2018-06-19T02:50:58.110Z,18.40
2018-06-19T02:53:26.440Z,18.40
2018-06-19T02:55:54.765Z,18.40
2018-06-19T02:58:23.095Z,18.40
2018-06-19T03:00:51.432Z,18.50
2018-06-19T03:03:19.733Z,18.60
2018-06-19T03:05:47.984Z,18.60
2018-06-19T03:08:16.281Z,18.80
2018-06-19T03:10:44.532Z,18.90
2018-06-19T03:13:12.840Z,19.00
2018-06-19T03:15:41.100Z,19.00
2018-06-19T03:18:40.132Z,19.00
2018-06-19T03:21:08.475Z,19.00
2018-06-19T03:23:36.785Z,19.00
2018-06-19T03:26:05.128Z,19.00
2018-06-19T03:28:33.411Z,19.10
2018-06-19T03:32:05.004Z,19.20
2018-06-19T03:34:33.371Z,19.30
2018-06-19T03:37:01.626Z,19.40
2018-06-19T03:39:29.900Z,19.50
2018-06-19T03:41:58.179Z,19.40
2018-06-19T03:44:26.472Z,19.40
2018-06-19T03:46:54.776Z,19.40
2018-06-19T03:49:23.130Z,19.40
2018-06-19T03:51:51.390Z,19.30
2018-06-19T03:54:19.679Z,19.20
2018-06-19T03:56:47.965Z,19.00
2018-06-19T03:59:16.254Z,18.70
2018-06-19T04:01:44.489Z,18.50
2018-06-19T04:04:12.792Z,18.30
2018-06-19T04:06:41.016Z,18.30
2018-06-19T04:09:09.343Z,18.20
2018-06-19T04:11:37.911Z,18.10
2018-06-19T04:14:06.210Z,18.20
2018-06-19T04:16:34.427Z,18.10
2018-06-19T04:19:02.735Z,18.20
2018-06-19T04:21:31.427Z,18.20
2018-06-19T04:23:59.732Z,18.20
2018-06-19T04:26:27.958Z,18.20
2018-06-19T04:28:56.290Z,18.20
2018-06-19T04:31:24.519Z,18.20
2018-06-19T04:33:52.842Z,18.30
2018-06-19T04:36:21.091Z,18.30
2018-06-19T04:38:49.440Z,18.40
2018-06-19T04:41:17.757Z,18.30
2018-06-19T04:43:46.128Z,18.40
2018-06-19T04:46:14.426Z,18.40
2018-06-19T04:48:42.692Z,18.40
2018-06-19T04:51:10.978Z,18.50
2018-06-19T04:53:39.227Z,18.50
2018-06-19T04:56:07.530Z,18.50
2018-06-19T04:58:35.910Z,18.60
2018-06-19T05:01:04.176Z,18.60
2018-06-19T05:03:32.551Z,18.70
2018-06-19T05:06:00.878Z,18.80
2018-06-19T05:08:29.199Z,19.00
2018-06-19T05:10:57.502Z,19.20
2018-06-19T05:13:25.796Z,19.30
2018-06-19T05:15:54.130Z,19.40
2018-06-19T05:18:22.423Z,19.50
2018-06-19T05:20:50.743Z,19.60
2018-06-19T05:23:19.075Z,19.70
2018-06-19T05:25:47.371Z,19.70
2018-06-19T05:28:15.631Z,19.80
2018-06-19T05:30:43.915Z,19.80
2018-06-19T05:33:12.211Z,19.90
2018-06-19T05:35:40.552Z,19.90
2018-06-19T05:38:08.847Z,19.90
2018-06-19T05:40:37.144Z,19.90
2018-06-19T05:43:05.405Z,19.90
2018-06-19T05:45:33.666Z,19.80
2018-06-19T05:48:01.923Z,19.80
2018-06-19T05:50:30.251Z,20.00
2018-06-19T05:52:58.487Z,20.20
2018-06-19T05:55:26.810Z,20.40
2018-06-19T05:57:55.165Z,20.60
2018-06-19T06:00:23.444Z,20.80
2018-06-19T06:02:51.723Z,20.90
2018-06-19T06:05:19.959Z,21.50
2018-06-19T06:07:48.274Z,23.00
2018-06-19T06:10:16.648Z,23.80
2018-06-19T06:12:44.963Z,24.90
2018-06-19T06:15:13.293Z,25.30
2018-06-19T06:17:41.599Z,26.00
2018-06-19T06:20:09.843Z,25.90
2018-06-19T06:22:38.125Z,25.30
2018-06-19T06:25:06.435Z,24.50
2018-06-19T06:27:34.697Z,24.10
2018-06-19T06:30:02.977Z,23.60
2018-06-19T06:32:31.252Z,23.20
2018-06-19T06:35:00.548Z,22.90
2018-06-19T06:37:28.837Z,24.30
2018-06-19T06:39:57.139Z,24.40
2018-06-19T06:42:25.489Z,25.10
2018-06-19T06:47:21.850Z,26.40
2018-06-19T06:49:50.134Z,27.40
2018-06-19T06:52:18.407Z,26.50
2018-06-19T06:54:46.685Z,27.00
2018-06-19T06:57:15.090Z,27.20
2018-06-19T06:59:43.441Z,27.70
2018-06-19T07:02:11.704Z,28.40
2018-06-19T07:04:39.971Z,28.60
2018-06-19T07:07:08.361Z,28.70
2018-06-19T07:09:36.653Z,28.60
2018-06-19T07:12:05.001Z,28.60
2018-06-19T07:14:33.324Z,29.10
2018-06-19T07:17:01.633Z,29.40
2018-06-19T07:19:30.046Z,29.50
2018-06-19T07:21:58.357Z,30.00
2018-06-19T07:24:26.752Z,30.10
2018-06-19T07:26:55.093Z,29.20
2018-06-19T07:29:23.419Z,29.10
2018-06-19T07:31:51.725Z,29.20
2018-06-19T07:34:20.023Z,29.90
2018-06-19T07:36:48.379Z,29.90
2018-06-19T07:39:16.681Z,30.20
2018-06-19T07:44:13.458Z,29.50
2018-06-19T07:46:41.802Z,29.70
2018-06-19T07:49:10.502Z,29.90
2018-06-19T07:51:38.791Z,29.20
2018-06-19T07:54:07.086Z,29.30
2018-06-19T07:56:35.321Z,29.50
2018-06-19T07:59:03.822Z,29.60
2018-06-19T08:01:32.084Z,29.60
2018-06-19T08:04:00.399Z,29.50
2018-06-19T08:06:28.639Z,29.80
2018-06-19T08:08:56.973Z,30.00
2018-06-19T08:11:25.318Z,30.00
2018-06-19T08:13:53.611Z,30.10
2018-06-19T08:16:21.976Z,30.20
2018-06-19T08:18:50.347Z,29.90
2018-06-19T08:21:18.631Z,30.10
2018-06-19T08:26:15.112Z,30.30
2018-06-19T08:28:43.360Z,30.30
2018-06-19T08:31:11.616Z,30.20
2018-06-19T08:33:39.936Z,30.10
2018-06-19T08:36:08.330Z,29.70
2018-06-19T08:38:36.684Z,30.10
2018-06-19T08:41:04.937Z,29.50
2018-06-19T08:43:33.217Z,29.60
2018-06-19T08:46:01.527Z,29.90
2018-06-19T08:48:29.929Z,30.20
2018-06-19T08:50:58.249Z,30.60
2018-06-19T08:53:26.549Z,31.40
2018-06-19T08:55:54.844Z,30.90
2018-06-19T08:58:23.178Z,30.40
2018-06-19T09:00:51.486Z,30.90
2018-06-19T09:03:19.771Z,31.10
2018-06-19T09:05:48.144Z,31.00
2018-06-19T09:08:16.489Z,31.20
2018-06-19T09:10:44.790Z,31.80
2018-06-19T09:13:13.058Z,31.50
2018-06-19T09:15:41.427Z,30.70
2018-06-19T09:18:09.715Z,30.30
2018-06-19T09:20:38.018Z,28.70
2018-06-19T09:23:06.379Z,28.30
2018-06-19T09:25:34.670Z,29.30
2018-06-19T09:28:02.930Z,29.80
2018-06-19T09:30:31.224Z,30.40
2018-06-19T09:32:59.581Z,30.70
2018-06-19T09:35:27.877Z,31.20
2018-06-19T09:37:56.143Z,31.40
2018-06-19T09:40:24.443Z,31.90
2018-06-19T09:42:52.773Z,32.60
2018-06-19T09:45:21.089Z,32.70
2018-06-19T09:47:49.429Z,31.30
2018-06-19T09:50:17.747Z,30.40
2018-06-19T09:52:46.146Z,29.60
2018-06-19T09:55:14.716Z,29.30
2018-06-19T09:57:43.058Z,29.30
2018-06-19T10:00:11.347Z,29.70
2018-06-19T10:02:39.631Z,29.00
2018-06-19T10:07:35.968Z,29.80
2018-06-19T10:10:04.254Z,30.20
2018-06-19T10:12:32.530Z,31.30
2018-06-19T10:15:00.827Z,31.10
2018-06-19T10:17:29.203Z,30.90
2018-06-19T10:19:57.514Z,30.80
2018-06-19T10:22:25.879Z,30.40
2018-06-19T10:24:54.251Z,29.00
2018-06-19T10:27:22.621Z,28.30
2018-06-19T10:29:50.955Z,28.60
2018-06-19T10:32:19.252Z,28.30
2018-06-19T10:34:47.505Z,28.50
2018-06-19T10:37:15.790Z,28.30
2018-06-19T10:39:44.070Z,28.70
2018-06-19T10:42:12.383Z,28.90
2018-06-19T10:44:40.720Z,28.50
2018-06-19T10:47:09.003Z,28.30
2018-06-19T10:49:37.283Z,28.70
2018-06-19T10:52:05.571Z,28.40
2018-06-19T10:54:33.880Z,28.10
2018-06-19T10:57:02.239Z,27.90
2018-06-19T10:59:30.480Z,27.60
2018-06-19T11:01:58.796Z,27.50
2018-06-19T11:04:27.048Z,27.50
2018-06-19T11:06:55.338Z,27.40
2018-06-19T11:09:23.592Z,27.80
2018-06-19T11:11:51.919Z,27.50
2018-06-19T11:14:20.417Z,27.50
2018-06-19T11:16:48.817Z,27.40
2018-06-19T11:19:17.433Z,27.50
2018-06-19T11:21:45.683Z,27.50
2018-06-19T11:24:14.019Z,27.40
2018-06-19T11:26:42.294Z,27.50
2018-06-19T11:29:10.675Z,27.10
2018-06-19T11:31:38.908Z,26.90
2018-06-19T11:34:07.216Z,27.00
2018-06-19T11:36:35.482Z,27.30
2018-06-19T11:39:05.181Z,27.20
2018-06-19T11:41:33.479Z,27.60
2018-06-19T11:44:01.760Z,27.40
2018-06-19T11:46:30.017Z,27.10
2018-06-19T11:48:58.300Z,27.30
2018-06-19T11:51:26.753Z,27.50
2018-06-19T11:53:55.091Z,27.50
2018-06-19T11:56:23.451Z,26.90
2018-06-19T11:58:52.640Z,26.70
2018-06-19T12:01:20.919Z,26.60
2018-06-19T12:03:49.892Z,26.40
2018-06-19T12:06:18.476Z,26.30
2018-06-19T12:08:46.764Z,26.20
2018-06-19T12:11:15.020Z,25.90
2018-06-19T12:13:43.329Z,25.70
2018-06-19T12:16:11.655Z,26.00
2018-06-19T12:18:39.922Z,25.90
2018-06-19T12:21:08.264Z,26.00
2018-06-19T12:23:36.564Z,26.10
2018-06-19T12:26:04.980Z,26.60
2018-06-19T12:28:33.304Z,26.90
2018-06-19T12:31:01.574Z,26.90
2018-06-19T12:33:29.863Z,27.00
2018-06-19T12:35:58.110Z,26.90
2018-06-19T12:38:26.414Z,27.10
2018-06-19T12:40:54.705Z,27.50
2018-06-19T12:43:23.056Z,27.80
2018-06-19T12:45:51.335Z,28.30
2018-06-19T12:48:19.604Z,28.40
2018-06-19T12:52:03.457Z,28.50
2018-06-19T12:56:46.180Z,28.60
2018-06-19T12:59:14.544Z,27.90
2018-06-19T13:01:42.839Z,26.90
2018-06-19T13:04:22.636Z,26.90
2018-06-19T13:06:50.959Z,26.60
2018-06-19T13:09:19.276Z,26.70
2018-06-19T13:11:47.624Z,26.50
2018-06-19T13:14:27.341Z,26.50
2018-06-19T13:17:06.907Z,26.30
2018-06-19T13:19:46.694Z,26.50
2018-06-19T13:22:15.118Z,27.10
2018-06-19T13:24:43.544Z,27.60
2018-06-19T13:27:11.795Z,27.90
2018-06-19T13:29:55.533Z,27.40
2018-06-19T13:32:24.204Z,26.80
2018-06-19T13:34:52.521Z,26.70
2018-06-19T13:37:20.904Z,26.80
2018-06-19T13:40:58.627Z,27.00
2018-06-19T13:43:38.328Z,27.70
2018-06-19T13:46:06.670Z,28.10
2018-06-19T13:48:35.042Z,28.00
2018-06-19T13:51:04.404Z,27.70
2018-06-19T13:53:32.753Z,27.70
2018-06-19T13:56:12.536Z,27.20
2018-06-19T13:58:40.857Z,26.60
2018-06-19T14:01:09.610Z,26.40
2018-06-19T14:03:37.944Z,26.20
2018-06-19T14:06:06.243Z,25.90
2018-06-19T14:09:49.581Z,25.70
2018-06-19T14:12:35.079Z,25.60
2018-06-19T14:15:03.359Z,25.40
2018-06-19T14:17:31.776Z,25.50
2018-06-19T14:20:00.089Z,25.70
2018-06-19T14:22:28.408Z,25.80
2018-06-19T14:24:56.753Z,26.20
2018-06-19T14:27:25.109Z,26.50
2018-06-19T14:29:53.420Z,26.40
2018-06-19T14:32:21.660Z,26.40
2018-06-19T14:34:49.965Z,26.20
2018-06-19T14:39:46.335Z,25.90
2018-06-19T14:42:14.596Z,25.90
2018-06-19T14:47:10.992Z,25.40
2018-06-19T14:49:39.351Z,25.30
2018-06-19T14:52:07.704Z,25.10
2018-06-19T14:54:35.988Z,24.90
2018-06-19T14:57:04.246Z,24.80
2018-06-19T14:59:32.537Z,24.80
2018-06-19T15:02:00.779Z,24.90
2018-06-19T15:04:29.131Z,25.00
2018-06-19T15:06:57.453Z,25.20
2018-06-19T15:09:25.786Z,25.20
2018-06-19T15:11:54.115Z,25.10
2018-06-19T15:14:22.426Z,25.20
2018-06-19T15:16:50.814Z,25.40
2018-06-19T15:19:19.188Z,25.40
2018-06-19T15:21:47.942Z,25.30
2018-06-19T15:24:16.318Z,25.20
2018-06-19T15:26:44.614Z,25.10
2018-06-19T15:29:12.864Z,25.00
2018-06-19T15:31:41.198Z,25.00
2018-06-19T15:34:09.922Z,25.00
2018-06-19T15:36:38.348Z,25.00
2018-06-19T15:39:09.475Z,25.00
2018-06-19T15:44:06.676Z,25.10
2018-06-19T15:46:35.117Z,25.00
2018-06-19T15:49:03.560Z,25.10
2018-06-19T15:51:32.176Z,24.80
2018-06-19T15:54:00.452Z,24.80
2018-06-19T15:56:28.824Z,24.70
2018-06-19T15:58:57.108Z,24.70
2018-06-19T16:01:25.471Z,24.70
2018-06-19T16:03:53.765Z,24.40
2018-06-19T16:06:22.068Z,24.30
2018-06-19T16:08:50.416Z,24.20
2018-06-19T16:11:18.704Z,24.20
2018-06-19T16:13:46.997Z,24.20
2018-06-19T16:16:15.328Z,24.30
2018-06-19T16:18:43.647Z,24.30
2018-06-19T16:21:12.014Z,24.50
2018-06-19T16:23:40.347Z,24.60
2018-06-19T16:26:08.721Z,24.80
2018-06-19T16:28:36.947Z,25.00
2018-06-19T16:31:05.299Z,25.10
2018-06-19T16:33:33.617Z,25.10
2018-06-19T16:36:01.875Z,25.30
2018-06-19T16:38:30.305Z,25.20
2018-06-19T16:40:58.679Z,25.00
2018-06-19T16:43:27.031Z,24.90
2018-06-19T16:45:55.315Z,24.70
2018-06-19T16:48:23.631Z,24.50
2018-06-19T16:50:51.947Z,24.40
2018-06-19T16:53:20.265Z,24.30
2018-06-19T16:55:48.611Z,24.20
2018-06-19T16:58:16.906Z,24.10
2018-06-19T17:00:45.165Z,24.00
2018-06-19T17:03:13.475Z,23.90
2018-06-19T17:05:41.839Z,23.90
2018-06-19T17:08:10.108Z,23.80
2018-06-19T17:12:09.694Z,23.80
2018-06-19T17:14:39.099Z,23.80
2018-06-19T17:17:07.407Z,23.70
2018-06-19T17:19:35.738Z,23.70
2018-06-19T17:22:04.105Z,23.60
2018-06-19T17:24:32.629Z,23.60
2018-06-19T17:27:00.934Z,23.60
2018-06-19T17:29:29.195Z,23.70
2018-06-19T17:31:57.491Z,23.50
2018-06-19T17:34:25.718Z,23.50
2018-06-19T17:36:54.033Z,23.40
2018-06-19T17:42:53.435Z,23.50
2018-06-19T17:45:21.728Z,23.40
2018-06-19T17:47:50.056Z,23.20
2018-06-19T17:50:18.540Z,23.40
2018-06-19T17:52:46.890Z,23.60
2018-06-19T17:55:15.143Z,23.60
2018-06-19T17:57:43.475Z,23.70
2018-06-19T18:00:11.837Z,23.70
2018-06-19T18:02:40.235Z,23.70
2018-06-19T18:05:08.563Z,23.60
2018-06-19T18:07:36.826Z,23.40
2018-06-19T18:10:05.156Z,23.30
2018-06-19T18:12:33.511Z,23.20
2018-06-19T18:15:01.798Z,23.00
2018-06-19T18:17:30.159Z,23.00
2018-06-19T18:19:58.449Z,22.90
2018-06-19T18:22:26.687Z,22.90
2018-06-19T18:24:55.032Z,22.80
2018-06-19T18:27:23.354Z,22.80
2018-06-19T18:29:51.673Z,22.70
2018-06-19T18:32:20.048Z,22.70
2018-06-19T18:34:48.303Z,22.70
2018-06-19T18:37:16.565Z,22.60
2018-06-19T18:39:44.859Z,22.60
2018-06-19T18:42:13.136Z,22.50
2018-06-19T18:47:09.603Z,22.30
2018-06-19T18:49:37.885Z,22.20
2018-06-19T18:52:06.188Z,22.10
2018-06-19T18:54:34.551Z,22.10
2018-06-19T18:57:02.904Z,22.00
2018-06-19T18:59:31.199Z,21.90
2018-06-19T19:01:59.529Z,21.80
2018-06-19T19:04:27.860Z,21.80
2018-06-19T19:06:56.113Z,21.70
2018-06-19T19:09:24.500Z,21.60
2018-06-19T19:11:52.767Z,21.50
2018-06-19T19:14:21.053Z,21.50
2018-06-19T19:16:54.831Z,21.40
2018-06-19T19:19:24.774Z,21.30
2018-06-19T19:21:53.732Z,21.20
2018-06-19T19:24:22.091Z,21.20
2018-06-19T19:26:56.091Z,21.10
2018-06-19T19:29:29.798Z,21.10
2018-06-19T19:31:58.127Z,21.00
2018-06-19T19:34:26.387Z,20.90
2018-06-19T19:36:59.943Z,20.80
2018-06-19T19:39:30.005Z,20.70
2018-06-19T19:41:58.332Z,20.70
2018-06-19T19:44:26.705Z,20.70
2018-06-19T19:47:00.469Z,20.70
2018-06-19T19:49:28.745Z,20.60
2018-06-19T19:51:57.073Z,20.60
2018-06-19T19:54:25.410Z,20.60
2018-06-19T19:56:59.016Z,20.60
2018-06-19T19:59:27.282Z,20.50
2018-06-19T20:01:55.833Z,20.40
2018-06-19T20:04:24.172Z,20.30
2018-06-19T20:06:52.431Z,20.30
2018-06-19T20:09:20.713Z,20.20
2018-06-19T20:11:49.042Z,20.10
2018-06-19T20:14:17.338Z,20.10
2018-06-19T20:16:45.645Z,20.00
2018-06-19T20:19:13.942Z,20.00
2018-06-19T20:21:42.217Z,20.00
2018-06-19T20:24:10.471Z,19.90
2018-06-19T20:26:38.801Z,19.90
2018-06-19T20:29:07.201Z,19.90
2018-06-19T20:31:35.518Z,19.90
2018-06-19T20:34:03.806Z,19.90
2018-06-19T20:36:32.064Z,19.80
2018-06-19T20:39:00.365Z,19.70
2018-06-19T20:41:28.644Z,19.80
2018-06-19T20:43:56.915Z,19.70
2018-06-19T20:46:25.173Z,19.70
2018-06-19T20:48:53.456Z,19.70
2018-06-19T20:51:21.733Z,19.70
2018-06-19T20:53:49.986Z,19.70
2018-06-19T20:56:18.314Z,19.70
2018-06-19T20:58:46.656Z,19.80
2018-06-19T21:01:14.916Z,19.80
2018-06-19T21:03:43.228Z,19.80
2018-06-19T21:06:11.475Z,19.80
2018-06-19T21:08:42.042Z,19.80
2018-06-19T21:11:12.031Z,19.90
2018-06-19T21:13:40.323Z,19.90
2018-06-19T21:16:09.370Z,19.90
2018-06-19T21:18:38.314Z,19.80
2018-06-19T21:21:06.864Z,19.80
2018-06-19T21:23:35.153Z,19.80
2018-06-19T21:26:04.237Z,19.80
2018-06-19T21:28:32.583Z,19.80
2018-06-19T21:31:00.921Z,19.70
2018-06-19T21:33:29.209Z,19.70
2018-06-19T21:35:57.600Z,19.60
2018-06-19T21:38:25.959Z,19.50
2018-06-19T21:40:54.239Z,19.50
2018-06-19T21:43:22.666Z,19.50
2018-06-19T21:45:51.020Z,19.50
2018-06-19T21:48:19.264Z,19.40
2018-06-19T21:50:47.598Z,19.40
2018-06-19T21:53:15.920Z,19.40
2018-06-19T21:55:44.197Z,19.30
2018-06-19T21:59:54.685Z,19.30
2018-06-19T22:04:56.567Z,19.20
2018-06-19T22:07:24.828Z,19.20
2018-06-19T22:09:53.112Z,19.10
2018-06-19T22:12:21.360Z,19.10
2018-06-19T22:14:49.667Z,19.10
2018-06-19T22:17:18.135Z,19.10
2018-06-19T22:19:46.491Z,19.10
2018-06-19T22:22:14.856Z,19.00
2018-06-19T22:24:43.202Z,19.10
2018-06-19T22:27:11.488Z,19.10
2018-06-19T22:29:39.869Z,19.00
2018-06-19T22:32:08.226Z,19.00
2018-06-19T22:34:36.487Z,18.90
2018-06-19T22:37:04.787Z,18.90
2018-06-19T22:39:33.381Z,18.90
2018-06-19T22:42:01.741Z,18.90
2018-06-19T22:44:30.058Z,18.90
2018-06-19T22:46:58.365Z,18.90
2018-06-19T22:49:26.700Z,18.90
2018-06-19T22:51:55.059Z,19.00
2018-06-19T22:54:23.353Z,18.90
2018-06-19T22:56:51.735Z,18.90
2018-06-19T22:59:20.145Z,18.90
2018-06-19T23:01:48.495Z,18.90
2018-06-19T23:04:16.770Z,18.80
2018-06-19T23:06:45.028Z,18.80
2018-06-19T23:14:09.469Z,18.60
2018-06-19T23:16:37.833Z,18.50
2018-06-19T23:19:06.117Z,18.50
2018-06-19T23:21:34.381Z,18.50
2018-06-19T23:24:02.635Z,18.50
2018-06-19T23:26:30.982Z,18.40
2018-06-19T23:28:59.303Z,18.40
2018-06-19T23:31:27.626Z,18.30
2018-06-19T23:33:55.948Z,18.30
2018-06-19T23:36:24.250Z,18.20
2018-06-19T23:38:52.512Z,18.10
2018-06-19T23:42:50.082Z,18.10
2018-06-19T23:45:18.376Z,18.00
2018-06-19T23:50:14.716Z,18.00
2018-06-19T23:52:44.017Z,18.00
2018-06-19T23:55:12.292Z,18.00
2018-06-19T23:57:40.564Z,18.00
